Time;durP1;ratioP1;P1;durP2;ratioP2;P2;SDS_P1;SDS_P2;PMS_P1;PMS_P2;Temp;Humidity;BMP_temperature;BMP_pressure;BME280_temperature;BME280_humidity;BME280_pressure;Samples;Min_cycle;Max_cycle;Signal;HPM_P1;HPM_P2
2023/05/03 00:00:50;;;;;;;10.50;4.20;;;;;;;11.25;58.68;100752.75;103416;1253;138528;-75
2023/05/03 00:03:21;;;;;;;8.50;3.80;;;;;;;11.22;58.59;100751.79;103418;1253;108388;-74
2023/05/03 00:05:49;;;;;;;7.30;3.70;;;;;;;11.20;58.38;100752.88;103363;1253;138696;-74
2023/05/03 00:08:28;;;;;;;7.90;3.10;;;;;;;11.18;57.88;100753.98;103420;1256;108681;-74
2023/05/03 00:11:15;;;;;;;5.00;3.00;;;;;;;11.14;57.35;100757.23;103427;1253;98272;-74
2023/05/03 00:13:45;;;;;;;8.10;3.10;;;;;;;11.11;57.12;100761.11;103694;1256;138153;-74
2023/05/03 00:16:12;;;;;;;7.30;2.90;;;;;;;11.07;57.03;100757.90;103468;1254;108555;-74
2023/05/03 00:18:43;;;;;;;5.60;3.20;;;;;;;11.07;56.95;100757.07;103405;1256;138521;-74
2023/05/03 00:21:10;;;;;;;5.50;3.30;;;;;;;11.05;57.03;100756.25;103486;1256;108566;-74
2023/05/03 00:23:37;;;;;;;7.80;3.40;;;;;;;11.03;57.18;100759.42;103336;1256;138651;-74
2023/05/03 00:26:07;;;;;;;6.60;3.40;;;;;;;10.99;57.29;100759.52;103520;1256;110894;-75
2023/05/03 00:28:34;;;;;;;8.00;3.60;;;;;;;10.96;57.40;100762.76;103356;1259;107913;-74
2023/05/03 00:31:10;;;;;;;7.60;3.70;;;;;;;10.93;57.66;100760.38;103305;1256;138487;-74
2023/05/03 00:33:38;;;;;;;7.10;3.50;;;;;;;10.89;57.57;100757.49;103591;1253;108070;-74
2023/05/03 00:36:10;;;;;;;9.10;3.50;;;;;;;10.88;57.55;100750.04;103311;1253;138799;-75
2023/05/03 00:38:41;;;;;;;7.90;3.20;;;;;;;10.87;57.06;100747.13;104852;1253;112432;-75
2023/05/03 00:41:12;;;;;;;9.90;3.30;;;;;;;10.82;56.79;100741.85;103408;1256;107109;-74
2023/05/03 00:43:39;;;;;;;5.70;3.00;;;;;;;10.79;56.37;100743.52;103374;1254;138731;-75
2023/05/03 00:46:07;;;;;;;5.90;2.80;;;;;;;10.76;56.01;100745.84;103453;1256;106986;-75
2023/05/03 00:48:48;;;;;;;7.40;3.20;;;;;;;10.71;55.78;100747.18;103339;1256;137785;-74
2023/05/03 00:51:20;;;;;;;4.90;2.60;;;;;;;10.65;55.56;100750.83;103454;1254;113078;-74
2023/05/03 00:53:48;;;;;;;4.60;2.10;;;;;;;10.60;55.52;100756.86;103976;1254;138450;-74
2023/05/03 00:56:21;;;;;;;5.40;2.60;;;;;;;10.56;55.49;100756.39;103523;1254;99393;-74
2023/05/03 00:59:11;;;;;;;4.80;2.40;;;;;;;10.52;55.40;100762.26;103471;1254;108603;-75
2023/05/03 01:01:49;;;;;;;3.40;2.10;;;;;;;10.46;55.21;100770.41;103334;1256;137718;-75
2023/05/03 01:04:21;;;;;;;5.10;2.30;;;;;;;10.40;55.20;100775.04;103462;1254;110903;-75
2023/05/03 01:06:57;;;;;;;8.00;2.60;;;;;;;10.35;55.28;100773.61;103264;1254;138047;-75
2023/05/03 01:09:35;;;;;;;6.80;3.00;;;;;;;10.32;55.46;100774.89;103494;1256;97787;-75
2023/05/03 01:12:15;;;;;;;6.90;2.90;;;;;;;10.27;55.69;100779.52;103458;1256;137802;-75
2023/05/03 01:15:12;;;;;;;7.00;3.00;;;;;;;10.21;56.24;100782.91;103432;1257;97887;-75
2023/05/03 01:17:49;;;;;;;8.00;3.80;;;;;;;10.13;56.84;100782.39;104102;1253;137841;-74
2023/05/03 01:20:23;;;;;;;7.30;3.70;;;;;;;10.06;57.37;100783.23;104715;1253;107959;-75
2023/05/03 01:23:00;;;;;;;7.20;4.20;;;;;;;10.00;57.75;100782.14;103601;1253;98700;-75
2023/05/03 01:25:31;;;;;;;8.30;4.80;;;;;;;9.94;58.30;100789.05;103370;1253;138276;-75
2023/05/03 01:28:09;;;;;;;7.00;3.80;;;;;;;9.86;58.46;100789.56;103854;1254;96487;-75
2023/05/03 01:30:50;;;;;;;7.50;3.40;;;;;;;9.81;58.71;100791.41;103270;1255;138255;-75
2023/05/03 01:33:45;;;;;;;7.90;3.10;;;;;;;9.75;58.65;100796.58;103335;1254;108600;-75
2023/05/03 01:36:35;;;;;;;4.80;3.10;;;;;;;9.67;58.58;100794.82;103759;1254;138304;-75
2023/05/03 01:39:25;;;;;;;7.60;3.10;;;;;;;9.61;58.66;100797.20;104059;1254;108862;-75
2023/05/03 01:42:14;;;;;;;8.10;3.00;;;;;;;9.55;58.48;100803.05;103363;1256;138503;-73
2023/05/03 01:44:49;;;;;;;5.30;2.90;;;;;;;9.49;58.34;100809.39;103557;1254;110804;-75
2023/05/03 01:47:30;;;;;;;5.60;2.80;;;;;;;9.43;58.42;100814.89;103604;1257;108422;-75
2023/05/03 01:50:16;;;;;;;;;;;;;;;9.37;58.46;100819.69;103434;1253;98265;-75
2023/05/03 01:52:43;;;;;;;5.00;2.80;;;;;;;9.32;58.46;100822.55;103700;1264;107590;-74
2023/05/03 01:55:11;;;;;;;6.00;2.70;;;;;;;9.29;58.50;100820.17;104042;1257;138082;-75
2023/05/03 01:57:41;;;;;;;7.30;3.50;;;;;;;9.27;58.65;100816.23;103720;1253;112390;-75
2023/05/03 02:00:28;;;;;;;6.20;3.30;;;;;;;9.26;58.82;100812.09;103624;1258;138377;-75
2023/05/03 02:03:15;;;;;;;7.40;3.60;;;;;;;9.25;59.06;100809.66;103443;1262;97788;-76
2023/05/03 02:05:45;;;;;;;6.30;3.20;;;;;;;9.26;59.24;100813.29;103689;1259;138248;-74
2023/05/03 02:08:12;;;;;;;6.90;3.40;;;;;;;9.25;59.37;100809.31;102879;1262;98077;-75
2023/05/03 02:11:00;;;;;;;4.40;3.20;;;;;;;9.25;59.48;100807.75;103530;1261;111152;-74
2023/05/03 02:13:32;;;;;;;5.80;3.10;;;;;;;9.27;59.63;100809.64;102757;1265;138188;-74
2023/05/03 02:16:02;;;;;;;6.50;3.40;;;;;;;9.27;59.62;100803.55;102918;1259;98515;-73
2023/05/03 02:18:37;;;;;;;8.90;3.30;;;;;;;9.29;59.74;100802.48;103614;1262;138152;-74
2023/05/03 02:21:05;;;;;;;6.20;3.50;;;;;;;9.30;59.85;100803.66;102939;1261;98128;-72
2023/05/03 02:23:42;;;;;;;8.30;3.90;;;;;;;9.31;60.01;100809.20;103190;1262;139111;-76
2023/05/03 02:26:15;;;;;;;6.00;3.50;;;;;;;9.29;60.11;100816.54;102871;1263;107444;-75
2023/05/03 02:28:50;;;;;;;5.70;3.20;;;;;;;9.26;60.17;100824.73;102924;1262;97821;-75
2023/05/03 02:31:37;;;;;;;5.40;3.60;;;;;;;9.22;60.28;100834.55;102906;1254;138413;-74
2023/05/03 02:34:04;;;;;;;8.20;3.80;;;;;;;9.20;60.36;100833.72;103300;1257;97785;-75
2023/05/03 02:36:50;;;;;;;;;;;;;;;9.18;60.47;100827.50;103371;1254;138596;-75
2023/05/03 02:39:37;;;;;;;7.20;3.50;;;;;;;9.16;60.49;100829.79;103443;1255;108821;-74
2023/05/03 02:42:24;;;;;;;;;;;;;;;9.17;60.63;100824.40;103344;1256;138099;-75
2023/05/03 02:45:12;;;;;;;6.70;3.60;;;;;;;9.16;60.57;100818.85;103464;1256;106708;-74
2023/05/03 02:47:39;;;;;;;5.00;3.00;;;;;;;9.15;60.37;100824.77;103721;1256;139240;-74
2023/05/03 02:50:11;;;;;;;6.30;3.40;;;;;;;9.16;60.40;100829.79;103350;1254;113072;-74
2023/05/03 02:52:40;;;;;;;7.30;3.20;;;;;;;9.16;60.27;100826.32;103841;1258;108080;-74
2023/05/03 02:55:11;;;;;;;8.10;3.40;;;;;;;9.15;60.00;100825.80;103659;1258;138368;-75
2023/05/03 02:57:58;;;;;;;6.70;3.20;;;;;;;9.14;59.97;100828.92;103465;1253;107343;-74
2023/05/03 03:00:26;;;;;;;5.20;3.20;;;;;;;9.12;59.85;100829.15;104181;1257;138192;-72
2023/05/03 03:02:53;;;;;;;5.60;3.00;;;;;;;9.11;59.73;100822.41;103412;1256;110738;-75
2023/05/03 03:05:21;;;;;;;6.20;3.20;;;;;;;9.10;59.81;100825.88;103399;1256;108242;-75
2023/05/03 03:07:48;;;;;;;7.80;3.40;;;;;;;9.08;59.70;100824.70;103497;1258;138237;-75
2023/05/03 03:10:16;;;;;;;7.00;3.50;;;;;;;9.07;59.61;100829.23;103348;1260;107962;-74
2023/05/03 03:12:43;;;;;;;5.80;3.50;;;;;;;9.05;59.73;100830.99;103823;1254;138140;-74
2023/05/03 03:15:14;;;;;;;8.10;3.80;;;;;;;9.03;59.83;100836.59;103442;1257;112151;-74
2023/05/03 03:17:44;;;;;;;6.10;3.60;;;;;;;9.01;59.91;100837.85;103326;1253;138319;-74
2023/05/03 03:20:15;;;;;;;6.40;3.80;;;;;;;8.99;60.01;100840.31;103468;1255;98712;-74
2023/05/03 03:22:54;;;;;;;8.40;3.50;;;;;;;8.99;60.08;100841.52;103392;1257;108246;-74
2023/05/03 03:25:21;;;;;;;5.60;3.30;;;;;;;8.98;60.29;100847.43;103348;1254;138188;-74
2023/05/03 03:27:49;;;;;;;9.80;3.60;;;;;;;8.97;60.45;100846.39;103558;1253;111334;-74
2023/05/03 03:30:19;;;;;;;8.20;3.80;;;;;;;8.97;60.69;100845.86;104006;1255;138698;-74
2023/05/03 03:33:11;;;;;;;7.30;3.40;;;;;;;8.96;60.60;100851.77;103465;1260;97815;-74
2023/05/03 03:35:39;;;;;;;7.30;3.80;;;;;;;8.94;60.71;100850.77;103322;1257;138108;-73
2023/05/03 03:38:10;;;;;;;8.50;3.50;;;;;;;8.93;60.82;100858.25;103427;1254;97836;-74
2023/05/03 03:40:41;;;;;;;6.60;3.30;;;;;;;8.93;60.61;100859.81;103454;1257;112504;-74
2023/05/03 03:43:28;;;;;;;6.90;3.60;;;;;;;8.92;60.64;100858.27;103356;1254;138208;-74
2023/05/03 03:45:59;;;;;;;7.70;3.60;;;;;;;8.91;60.63;100862.80;103351;1259;97826;-73
2023/05/03 03:48:29;;;;;;;6.40;3.60;;;;;;;8.90;60.60;100863.85;103221;1254;138209;-73
2023/05/03 03:50:58;;;;;;;9.50;3.90;;;;;;;8.89;60.76;100864.90;103847;1254;97787;-74
2023/05/03 03:53:31;;;;;;;8.90;3.90;;;;;;;8.90;60.71;100866.45;103549;1254;112024;-74
2023/05/03 03:56:02;;;;;;;6.90;3.80;;;;;;;8.91;60.81;100870.42;103323;1254;108585;-73
2023/05/03 03:58:30;;;;;;;6.60;3.70;;;;;;;8.89;60.55;100881.38;103421;1257;97682;-74
2023/05/03 04:00:59;;;;;;;8.80;3.70;;;;;;;8.88;60.77;100887.65;103220;1255;138286;-74
2023/05/03 04:03:27;;;;;;;6.00;3.80;;;;;;;8.87;60.55;100889.73;103498;1254;97807;-74
2023/05/03 04:05:55;;;;;;;7.50;3.50;;;;;;;8.88;60.51;100889.71;103852;1257;138166;-75
2023/05/03 04:08:22;;;;;;;8.50;3.40;;;;;;;8.91;60.44;100890.19;103525;1254;110899;-74
2023/05/03 04:10:50;;;;;;;7.20;3.40;;;;;;;8.94;60.47;100896.73;103540;1257;97790;-74
2023/05/03 04:13:28;;;;;;;5.60;3.30;;;;;;;8.97;60.41;100902.05;103406;1254;139042;-74
2023/05/03 04:15:57;;;;;;;8.90;3.40;;;;;;;9.00;60.42;100906.19;104123;1253;97813;-75
2023/05/03 04:18:25;;;;;;;7.70;3.70;;;;;;;9.05;60.29;100903.67;103543;1254;137965;-74
2023/05/03 04:21:12;;;;;;;5.40;3.40;;;;;;;9.09;60.13;100905.02;103427;1254;108799;-74
2023/05/03 04:23:42;;;;;;;7.80;3.30;;;;;;;9.13;60.02;100905.64;103946;1254;138366;-74
2023/05/03 04:26:10;;;;;;;7.20;3.80;;;;;;;9.20;59.93;100904.50;103527;1257;107352;-74
2023/05/03 04:29:00;;;;;;;8.30;3.60;;;;;;;9.30;59.72;100903.10;103489;1255;97809;-74
2023/05/03 04:31:31;;;;;;;6.10;3.00;;;;;;;9.41;59.57;100907.10;103205;1254;138230;-75
2023/05/03 04:34:13;;;;;;;7.30;3.40;;;;;;;9.53;59.23;100909.67;103361;1254;108216;-74
2023/05/03 04:36:42;;;;;;;8.50;3.10;;;;;;;9.61;58.76;100914.04;103245;1257;138487;-74
2023/05/03 04:39:11;;;;;;;5.20;2.90;;;;;;;9.74;58.54;100917.63;103260;1254;109426;-74
2023/05/03 04:41:40;;;;;;;7.10;2.70;;;;;;;9.89;58.15;100915.80;104130;1256;138531;-73
2023/05/03 04:44:08;;;;;;;5.80;3.10;;;;;;;10.03;57.78;100913.26;104240;1254;110495;-75
2023/05/03 04:46:35;;;;;;;3.90;2.70;;;;;;;10.17;57.49;100909.35;103469;1257;107965;-75
2023/05/03 04:49:02;;;;;;;6.60;3.40;;;;;;;10.30;56.79;100912.09;103483;1255;137811;-74
2023/05/03 04:51:50;;;;;;;5.90;3.00;;;;;;;10.38;56.65;100915.55;103482;1252;107953;-74
2023/05/03 04:54:28;;;;;;;5.40;2.80;;;;;;;10.44;56.42;100927.61;103485;1253;137913;-74
2023/05/03 04:56:56;;;;;;;6.10;2.80;;;;;;;10.56;56.10;100929.08;103484;1254;112068;-75
2023/05/03 04:59:24;;;;;;;5.90;2.60;;;;;;;11.65;56.41;100926.13;103486;1254;108861;-75
2023/05/03 05:01:51;;;;;;;3.90;2.30;;;;;;;13.91;54.70;100926.45;103177;1254;137844;-74
2023/05/03 05:04:18;;;;;;;4.10;2.10;;;;;;;16.08;51.75;100921.94;104017;1253;108617;-74
2023/05/03 05:06:47;;;;;;;5.10;2.20;;;;;;;17.75;48.50;100922.62;103219;1254;137849;-74
2023/05/03 05:09:25;;;;;;;4.60;2.30;;;;;;;19.52;45.61;100917.86;103372;1254;110847;-74
2023/05/03 05:11:54;;;;;;;4.10;1.80;;;;;;;21.19;42.92;100913.50;103553;1254;138535;-73
2023/05/03 05:14:26;;;;;;;2.80;2.00;;;;;;;22.82;40.85;100905.17;103713;1256;97705;-72
2023/05/03 05:16:53;;;;;;;5.10;2.20;;;;;;;24.38;38.48;100906.67;103355;1257;108861;-74
2023/05/03 05:19:20;;;;;;;2.90;1.90;;;;;;;25.69;36.23;100909.25;103389;1254;137811;-74
2023/05/03 05:21:48;;;;;;;3.50;2.00;;;;;;;26.87;34.39;100907.67;103406;1254;111732;-74
2023/05/03 05:24:15;;;;;;;4.80;2.10;;;;;;;27.76;32.55;100911.77;103438;1254;137921;-74
2023/05/03 05:26:43;;;;;;;4.20;2.10;;;;;;;28.75;31.35;100907.69;103289;1254;97805;-74
2023/05/03 05:29:11;;;;;;;3.70;1.80;;;;;;;29.54;29.64;100907.45;103371;1257;107394;-66
2023/05/03 05:31:38;;;;;;;4.10;2.10;;;;;;;30.16;28.38;100901.59;103202;1254;138025;-67
2023/05/03 05:34:06;;;;;;;4.90;2.90;;;;;;;30.80;27.26;100899.69;103362;1257;111898;-67
2023/05/03 05:36:34;;;;;;;7.10;3.80;;;;;;;31.27;26.35;100902.00;103244;1254;138009;-68
2023/05/03 05:39:02;;;;;;;10.00;7.90;;;;;;;31.99;25.43;100904.44;103409;1256;97812;-68
2023/05/03 05:41:30;;;;;;;3.10;2.30;;;;;;;32.49;24.56;100902.53;103285;1254;99852;-67
2023/05/03 05:43:58;;;;;;;2.30;1.90;;;;;;;33.07;23.74;100903.52;103326;1254;97708;-69
2023/05/03 05:46:26;;;;;;;3.20;2.00;;;;;;;33.57;22.92;100905.54;103416;1253;103374;-69
2023/05/03 05:48:53;;;;;;;3.50;2.00;;;;;;;34.01;22.36;100907.91;103162;1254;137734;-72
2023/05/03 05:51:22;;;;;;;2.20;1.70;;;;;;;34.35;21.70;100909.88;103382;1257;97804;-68
2023/05/03 05:53:49;;;;;;;7.90;1.80;;;;;;;34.72;21.25;100907.26;103227;1254;140116;-69
2023/05/03 05:56:16;;;;;;;3.10;1.50;;;;;;;35.12;20.47;100908.98;103204;1257;96310;-64
2023/05/03 05:58:43;;;;;;;2.60;1.70;;;;;;;35.47;19.96;100917.83;103364;1254;102608;-68
2023/05/03 06:01:10;;;;;;;3.60;1.40;;;;;;;35.91;19.58;100921.30;103215;1256;137730;-68
2023/05/03 06:03:37;;;;;;;2.90;1.50;;;;;;;36.19;18.61;100923.35;103361;1256;97784;-69
2023/05/03 06:06:06;;;;;;;3.60;1.80;;;;;;;36.32;18.03;100926.41;103209;1254;137758;-69
2023/05/03 06:08:35;;;;;;;2.40;1.50;;;;;;;36.55;17.92;100932.63;103424;1254;98305;-69
2023/05/03 06:11:03;;;;;;;2.50;1.30;;;;;;;36.77;17.33;100930.13;103344;1254;103676;-69
2023/05/03 06:13:33;;;;;;;3.00;1.30;;;;;;;36.92;16.87;100937.17;102931;1253;199431;-68
2023/05/03 06:16:01;;;;;;;1.90;1.20;;;;;;;37.09;16.35;100935.96;103235;1253;97829;-68
2023/05/03 06:18:28;;;;;;;3.40;1.10;;;;;;;37.29;16.52;100939.28;103084;1254;138160;-69
2023/05/03 06:20:55;;;;;;;3.60;1.70;;;;;;;37.62;16.45;100940.23;103352;1254;97664;-64
2023/05/03 06:23:22;;;;;;;4.30;1.30;;;;;;;38.03;16.19;100939.92;103355;1254;104296;-68
2023/05/03 06:25:51;;;;;;;2.60;1.30;;;;;;;38.30;15.81;100945.42;103292;1254;137670;-73
2023/05/03 06:28:19;;;;;;;1.60;1.10;;;;;;;38.57;14.99;100947.16;103894;1254;97826;-75
2023/05/03 06:30:51;;;;;;;2.10;1.20;;;;;;;38.61;14.89;100949.34;103198;1253;138102;-77
2023/05/03 06:33:18;;;;;;;3.40;1.50;;;;;;;38.45;14.68;100948.48;103134;1253;97900;-73
2023/05/03 06:35:49;;;;;;;1.40;1.10;;;;;;;38.47;14.67;100947.34;103069;1254;138888;-75
2023/05/03 06:38:17;;;;;;;2.20;1.50;;;;;;;38.52;14.35;100952.23;104461;1253;98613;-76
2023/05/03 06:40:44;;;;;;;3.60;1.30;;;;;;;38.13;13.67;100946.08;103243;1257;98131;-75
2023/05/03 06:43:11;;;;;;;2.50;1.00;;;;;;;38.07;14.01;100946.34;103246;1253;137491;-75
2023/05/03 06:45:44;;;;;;;2.00;1.10;;;;;;;38.65;13.81;100950.09;103340;1254;97683;-75
2023/05/03 06:48:11;;;;;;;1.20;1.00;;;;;;;39.10;13.70;100944.55;103118;1252;137726;-72
2023/05/03 06:50:38;;;;;;;1.40;0.90;;;;;;;39.53;13.39;100943.79;103179;1254;99397;-76
2023/05/03 06:53:05;;;;;;;2.00;1.00;;;;;;;39.78;13.16;100947.66;103444;1253;97816;-75
2023/05/03 06:55:32;;;;;;;3.10;1.00;;;;;;;39.73;12.97;100948.77;103348;1256;137442;-74
2023/05/03 06:58:00;;;;;;;2.20;1.20;;;;;;;39.65;12.34;100942.98;103304;1253;97771;-75
2023/05/03 07:00:29;;;;;;;2.60;1.40;;;;;;;39.30;12.46;100950.70;103296;1254;137697;-75
2023/05/03 07:02:56;;;;;;;2.80;1.50;;;;;;;39.35;12.42;100949.68;103480;1256;99446;-75
2023/05/03 07:05:23;;;;;;;2.50;1.10;;;;;;;39.57;12.26;100946.38;103430;1254;97862;-76
2023/05/03 07:07:51;;;;;;;3.60;1.60;;;;;;;39.64;11.92;100950.18;104575;1253;137806;-76
2023/05/03 07:10:18;;;;;;;2.30;1.30;;;;;;;39.71;12.09;100949.16;103481;1256;97798;-77
2023/05/03 07:12:45;;;;;;;3.00;1.40;;;;;;;39.70;11.72;100952.61;103982;1253;137588;-78
2023/05/03 07:15:13;;;;;;;2.70;1.50;;;;;;;39.39;11.77;100953.08;103935;1253;107694;-79
2023/05/03 07:17:40;;;;;;;2.40;1.00;;;;;;;39.29;12.13;100955.04;103468;1253;137870;-76
2023/05/03 07:20:11;;;;;;;1.70;1.10;;;;;;;38.96;11.76;100957.29;103500;1253;99946;-76
2023/05/03 07:22:39;;;;;;;3.50;1.10;;;;;;;38.64;12.07;100957.05;103568;1254;97856;-77
2023/05/03 07:25:07;;;;;;;2.20;1.30;;;;;;;38.64;12.08;100959.48;103362;1256;137442;-77
2023/05/03 07:27:34;;;;;;;4.80;1.30;;;;;;;38.80;11.86;100958.64;104013;1252;100321;-77
2023/05/03 07:30:02;;;;;;;1.50;1.10;;;;;;;38.71;12.08;100961.35;103269;1256;137875;-78
2023/05/03 07:32:30;;;;;;;2.30;1.30;;;;;;;37.94;11.90;100962.13;104717;1252;99377;-76
2023/05/03 07:34:57;;;;;;;2.30;1.30;;;;;;;37.47;11.97;100962.16;103835;1256;97785;-75
2023/05/03 07:37:26;;;;;;;3.80;1.70;;;;;;;37.04;12.02;100964.90;103331;1254;137452;-76
2023/05/03 07:39:53;;;;;;;3.20;1.40;;;;;;;36.83;12.24;100963.42;104652;1252;99059;-75
2023/05/03 07:42:20;;;;;;;3.20;1.10;;;;;;;36.26;12.36;100965.95;104670;1252;137339;-75
2023/05/03 07:44:47;;;;;;;5.70;1.50;;;;;;;35.35;12.64;100968.56;104793;1252;100060;-74
2023/05/03 07:47:14;;;;;;;3.40;1.70;;;;;;;34.03;12.88;100972.39;103820;1253;97753;-75
2023/05/03 07:49:41;;;;;;;2.30;1.40;;;;;;;32.37;13.53;100969.13;103300;1252;138201;-73
2023/05/03 07:52:09;;;;;;;6.30;1.80;;;;;;;30.77;14.22;100973.20;103365;1256;108278;-75
2023/05/03 07:54:36;;;;;;;5.20;2.00;;;;;;;29.38;14.82;100974.42;103736;1253;137820;-76
2023/05/03 07:57:03;;;;;;;2.60;1.60;;;;;;;28.23;15.72;100973.36;103327;1253;108579;-75
2023/05/03 07:59:31;;;;;;;3.40;1.60;;;;;;;27.14;16.21;100971.68;104197;1253;97886;-76
2023/05/03 08:01:58;;;;;;;3.50;1.90;;;;;;;26.55;17.26;100981.52;103429;1256;112297;-73
2023/05/03 08:04:27;;;;;;;3.10;2.10;;;;;;;25.81;17.65;100989.10;103369;1256;108132;-75
2023/05/03 08:06:55;;;;;;;5.90;2.70;;;;;;;24.62;18.26;100990.65;103320;1257;137797;-73
2023/05/03 08:09:23;;;;;;;2.90;1.60;;;;;;;23.71;19.35;100996.77;103776;1254;108438;-77
2023/05/03 08:11:50;;;;;;;3.90;1.90;;;;;;;23.19;19.95;100995.48;103173;1256;138013;-77
2023/05/03 08:14:17;;;;;;;4.10;1.70;;;;;;;22.83;20.33;101001.29;103427;1253;111589;-73
2023/05/03 08:16:45;;;;;;;4.50;1.90;;;;;;;22.46;20.83;101003.16;103355;1253;107641;-75
2023/05/03 08:19:12;;;;;;;3.40;1.90;;;;;;;22.05;21.18;100999.08;103296;1256;137925;-76
2023/05/03 08:21:39;;;;;;;3.60;1.70;;;;;;;21.66;21.57;101003.82;103370;1252;107805;-78
2023/05/03 08:24:07;;;;;;;3.90;1.80;;;;;;;22.26;22.15;101000.48;103344;1252;138034;-78
2023/05/03 08:26:34;;;;;;;5.70;2.00;;;;;;;23.64;21.53;100998.20;103725;1256;111328;-79
2023/05/03 08:29:02;;;;;;;4.10;2.30;;;;;;;24.20;20.85;100995.33;103388;1255;108127;-78
2023/05/03 08:31:30;;;;;;;3.90;1.90;;;;;;;24.25;21.01;100996.40;103564;1258;140800;-75
2023/05/03 08:33:57;;;;;;;6.50;2.00;;;;;;;25.14;20.51;100991.29;103339;1256;108401;-77
2023/05/03 08:36:24;;;;;;;3.70;1.80;;;;;;;25.91;20.08;100994.52;103391;1256;137855;-75
2023/05/03 08:38:51;;;;;;;2.60;1.70;;;;;;;26.84;19.72;100990.05;103549;1253;112365;-76
2023/05/03 08:41:26;;;;;;;4.80;1.90;;;;;;;27.90;19.30;100984.14;103485;1253;107782;-76
2023/05/03 08:43:57;;;;;;;3.00;1.80;;;;;;;28.83;18.36;100981.20;103433;1252;137552;-76
2023/05/03 08:46:25;;;;;;;4.10;1.90;;;;;;;29.31;17.60;100979.48;103454;1253;108330;-77
2023/05/03 08:48:54;;;;;;;5.40;2.30;;;;;;;29.11;17.16;100983.27;104077;1253;137928;-77
2023/05/03 08:51:24;;;;;;;5.70;2.30;;;;;;;28.05;17.29;100990.08;103550;1253;111233;-71
2023/05/03 08:53:51;;;;;;;5.00;2.00;;;;;;;26.87;17.86;100998.17;103831;1252;137948;-74
2023/05/03 08:56:29;;;;;;;3.30;1.90;;;;;;;26.57;18.42;101000.50;103590;1252;97708;-80
2023/05/03 08:59:00;;;;;;;4.40;2.30;;;;;;;27.19;18.89;100991.19;103510;1253;108325;-73
2023/05/03 09:01:27;;;;;;;5.30;2.50;;;;;;;27.56;18.97;100994.09;103217;1256;138926;-67
2023/05/03 09:03:54;;;;;;;8.30;2.90;;;;;;;26.84;19.27;101001.06;103310;1253;111174;-69
2023/05/03 09:06:25;;;;;;;6.60;2.90;;;;;;;25.75;19.61;101004.61;103278;1256;138270;-75
2023/05/03 09:08:53;;;;;;;3.80;2.20;;;;;;;24.85;20.00;101009.47;104037;1254;97783;-70
2023/05/03 09:11:24;;;;;;;3.60;2.40;;;;;;;24.75;20.68;101010.61;103622;1253;108494;-71
2023/05/03 09:13:52;;;;;;;4.60;2.20;;;;;;;25.38;20.50;101009.79;103727;1253;137569;-73
2023/05/03 09:16:27;;;;;;;3.30;2.00;;;;;;;25.85;19.96;101004.11;103915;1253;110661;-72
2023/05/03 09:19:02;;;;;;;4.20;2.10;;;;;;;26.33;19.72;101005.20;104092;1252;137756;-67
2023/05/03 09:21:30;;;;;;;4.70;1.90;;;;;;;26.07;19.51;101006.38;104699;1252;95756;-70
2023/05/03 09:23:57;;;;;;;3.20;2.00;;;;;;;25.20;19.52;101004.52;103909;1253;137847;-69
2023/05/03 09:26:32;;;;;;;3.10;2.00;;;;;;;24.21;19.54;101010.23;103416;1252;97819;-67
2023/05/03 09:29:04;;;;;;;3.30;1.60;;;;;;;23.91;20.10;101015.50;103326;1256;111746;-67
2023/05/03 09:31:33;;;;;;;2.90;1.50;;;;;;;24.30;20.33;101009.70;103257;1256;138883;-67
2023/05/03 09:34:00;;;;;;;5.40;1.40;;;;;;;24.93;20.00;101007.77;103563;1253;98240;-68
2023/05/03 09:36:27;;;;;;;2.10;1.40;;;;;;;25.52;19.74;101009.34;103409;1252;137773;-67
2023/05/03 09:38:55;;;;;;;3.00;1.30;;;;;;;26.17;19.28;101005.52;103459;1253;97778;-68
2023/05/03 09:41:30;;;;;;;2.30;1.40;;;;;;;26.25;18.88;101008.76;103481;1256;111368;-66
2023/05/03 09:44:01;;;;;;;3.50;1.50;;;;;;;26.39;18.62;101009.98;103603;1253;106920;-67
2023/05/03 09:46:29;;;;;;;3.10;1.60;;;;;;;25.99;18.58;101006.86;103252;1253;97810;-66
2023/05/03 09:48:58;;;;;;;2.20;1.40;;;;;;;25.62;18.53;101011.52;103393;1252;137591;-67
2023/05/03 09:51:26;;;;;;;3.50;1.80;;;;;;;25.77;19.00;101010.84;103839;1253;97765;-69
2023/05/03 09:53:54;;;;;;;5.90;2.30;;;;;;;25.89;19.08;101009.46;103456;1255;138362;-71
2023/05/03 09:56:25;;;;;;;9.80;3.40;;;;;;;25.77;19.43;101011.07;103344;1253;107690;-70
2023/05/03 09:58:53;;;;;;;6.70;2.70;;;;;;;25.34;19.17;101012.44;103569;1252;97801;-77
2023/05/03 10:01:22;;;;;;;12.40;4.90;;;;;;;24.67;19.90;101008.91;103176;1254;137683;-76
2023/05/03 10:03:50;;;;;;;5.10;1.90;;;;;;;24.75;20.42;101008.99;103955;1257;97790;-72
2023/05/03 10:06:23;;;;;;;4.40;2.10;;;;;;;25.09;19.67;101008.61;103305;1256;138667;-76
2023/05/03 10:09:00;;;;;;;3.30;1.60;;;;;;;25.33;20.04;101006.84;104640;1253;107541;-72
2023/05/03 10:11:28;;;;;;;3.40;1.50;;;;;;;25.64;19.78;101007.13;103281;1252;98534;-70
2023/05/03 10:13:56;;;;;;;3.50;1.90;;;;;;;25.34;19.72;101005.16;103312;1254;138186;-74
2023/05/03 10:16:34;;;;;;;10.80;4.70;;;;;;;24.75;19.76;101010.95;103297;1256;97778;-72
2023/05/03 10:19:13;;;;;;;5.00;3.00;;;;;;;23.99;20.07;101015.42;103189;1253;138653;-71
2023/05/03 10:21:55;;;;;;;14.80;7.20;;;;;;;23.36;20.79;101017.10;103374;1254;107324;-78
2023/05/03 10:24:24;;;;;;;10.60;3.40;;;;;;;23.48;21.90;101008.46;103279;1253;138242;-81
2023/05/03 10:26:52;;;;;;;10.30;5.40;;;;;;;23.87;21.90;101011.41;103371;1253;107026;-74
2023/05/03 10:29:50;;;;;;;13.20;7.30;;;;;;;24.24;21.53;101008.76;103340;1256;97787;-74
2023/05/03 10:32:38;;;;;;;7.20;4.30;;;;;;;24.50;21.02;101006.92;103313;1256;111685;-81
2023/05/03 10:35:13;;;;;;;9.50;6.10;;;;;;;24.80;20.95;101000.98;103319;1253;107609;-77
2023/05/03 10:37:42;;;;;;;13.20;6.20;;;;;;;25.23;20.97;100999.13;103275;1253;137766;-90
2023/05/03 10:40:13;;;;;;;25.00;8.10;;;;;;;24.94;20.61;101002.19;103371;1254;107675;-75
2023/05/03 10:42:43;;;;;;;12.40;6.90;;;;;;;24.21;20.83;101008.24;103207;1253;137918;-72
2023/05/03 10:45:22;;;;;;;9.20;5.30;;;;;;;23.55;21.15;101010.25;103320;1256;112544;-71
2023/05/03 10:48:21;;;;;;;7.70;2.50;;;;;;;23.49;21.75;101012.77;103426;1253;138230;-73
2023/05/03 10:50:50;;;;;;;7.80;3.80;;;;;;;23.71;21.61;101007.45;103496;1253;97774;-73
2023/05/03 10:53:42;;;;;;;7.10;2.50;;;;;;;23.68;21.08;101008.20;103456;1252;108607;-72
2023/05/03 10:56:10;;;;;;;5.80;2.70;;;;;;;23.70;21.04;101006.12;104207;1256;97794;-70
2023/05/03 10:58:45;;;;;;;8.10;3.20;;;;;;;23.83;20.84;101007.98;103395;1253;110430;-74
2023/05/03 11:01:14;;;;;;;5.50;2.50;;;;;;;23.73;20.58;101001.41;103511;1253;137930;-70
2023/05/03 11:03:52;;;;;;;6.70;2.20;;;;;;;23.46;20.66;101005.20;103522;1253;98506;-69
2023/05/03 11:06:34;;;;;;;12.10;5.70;;;;;;;23.18;20.33;101013.68;103348;1253;138096;-69
2023/05/03 11:09:04;;;;;;;3.30;1.70;;;;;;;22.93;20.42;101012.81;103314;1257;97810;-71
2023/05/03 11:11:32;;;;;;;3.40;1.70;;;;;;;22.81;20.83;101012.59;103510;1256;111635;-71
2023/05/03 11:13:59;;;;;;;5.00;2.90;;;;;;;22.97;21.30;101014.10;103299;1253;137647;-69
2023/05/03 11:16:26;;;;;;;18.10;9.60;;;;;;;23.18;21.22;101010.48;103617;1256;98477;-67
2023/05/03 11:18:55;;;;;;;7.50;3.70;;;;;;;23.19;22.23;101012.88;103127;1252;137769;-71
2023/05/03 11:21:22;;;;;;;12.20;7.30;;;;;;;23.24;21.74;101008.41;103287;1256;97783;-69
2023/05/03 11:23:49;;;;;;;20.30;7.10;;;;;;;23.19;21.95;101014.30;103349;1253;137983;-69
2023/05/03 11:26:18;;;;;;;19.50;5.90;;;;;;;22.87;22.14;101016.23;103369;1253;107757;-66
2023/05/03 11:28:45;;;;;;;7.10;2.20;;;;;;;22.49;22.25;101018.70;103431;1253;97774;-68
2023/05/03 11:31:13;;;;;;;3.90;2.00;;;;;;;22.17;22.16;101021.49;103811;1252;139209;-70
2023/05/03 11:33:41;;;;;;;4.10;1.80;;;;;;;21.75;22.06;101022.15;103735;1253;97785;-69